createdAt,value
2022-10-12T00:03:55.078Z,2.2
2022-10-12T00:10:15.001Z,2.2
2022-10-12T00:16:38.019Z,2.6
2022-10-12T00:22:57.901Z,2.6
2022-10-12T00:29:20.943Z,5.6
2022-10-12T00:35:40.929Z,5.6
2022-10-12T00:42:03.930Z,2.2
2022-10-12T00:48:23.874Z,2.2
2022-10-12T00:54:47.091Z,7.2
2022-10-12T01:01:07.061Z,7.2
2022-10-12T01:07:30.051Z,3.8
2022-10-12T01:13:50.024Z,3.8
2022-10-12T01:20:13.098Z,14.2
2022-10-12T01:26:33.037Z,14.2
2022-10-12T01:32:56.124Z,3.4
2022-10-12T01:39:16.080Z,3.4
2022-10-12T01:45:39.085Z,4
2022-10-12T01:51:59.173Z,4
2022-10-12T01:58:22.093Z,18.4
2022-10-12T02:04:42.011Z,18.4
2022-10-12T02:11:05.024Z,3.5
2022-10-12T02:17:25.119Z,3.5
2022-10-12T02:23:47.927Z,1.9
2022-10-12T02:30:07.939Z,1.9
2022-10-12T02:36:30.908Z,2.7
2022-10-12T02:43:09.181Z,2.7
2022-10-12T02:49:14.013Z,1.6
2022-10-12T02:55:33.980Z,1.6
2022-10-12T03:01:57.070Z,3.7
2022-10-12T03:08:16.964Z,3.7
2022-10-12T03:25:02.585Z,2.2
2022-10-12T03:31:22.901Z,2.2
2022-10-12T03:37:45.886Z,15
2022-10-12T03:44:05.924Z,15
2022-10-12T03:50:28.925Z,15
2022-10-12T03:56:49.109Z,15
2022-10-12T04:03:11.986Z,5.2
2022-10-12T04:09:31.924Z,5.2
2022-10-12T04:15:55.040Z,2.9
2022-10-12T04:22:15.082Z,2.9
2022-10-12T04:28:38.050Z,2.5
2022-10-12T04:34:57.894Z,2.5
2022-10-12T04:41:21.095Z,3.4
2022-10-12T04:47:41.207Z,3.4
2022-10-12T04:54:04.095Z,1.9
2022-10-12T05:00:24.008Z,1.9
2022-10-12T05:06:46.893Z,1.6
2022-10-12T05:13:07.080Z,1.6
2022-10-12T05:19:30.065Z,7.7
2022-10-12T05:25:50.076Z,7.7
2022-10-12T05:32:12.990Z,3.7
2022-10-12T05:38:32.914Z,3.7
2022-10-12T05:44:55.926Z,2.5
2022-10-12T05:51:15.969Z,2.5
2022-10-12T05:57:38.988Z,2.9
2022-10-12T06:03:58.882Z,2.9
2022-10-12T06:10:24.267Z,1.7
2022-10-12T06:16:42.072Z,1.7
2022-10-12T06:23:04.972Z,2.6
2022-10-12T06:29:25.170Z,2.6
2022-10-12T06:35:47.949Z,4.8
2022-10-12T06:42:07.914Z,4.8
2022-10-12T06:48:31.110Z,3.4
2022-10-12T06:54:50.932Z,3.4
2022-10-12T07:01:14.086Z,10
2022-10-12T07:07:33.931Z,10
2022-10-12T07:13:57.109Z,5.6
2022-10-12T07:20:16.915Z,5.6
2022-10-12T07:26:39.897Z,2.6
2022-10-12T07:33:00.029Z,2.6
2022-10-12T07:39:22.907Z,13.6
2022-10-12T07:45:42.925Z,13.6
2022-10-12T07:52:05.988Z,2.3
2022-10-12T07:58:26.012Z,2.3
2022-10-12T08:04:49.027Z,6.8
2022-10-12T08:11:09.118Z,6.8
2022-10-12T08:34:49.907Z,7.8
2022-10-12T08:41:12.897Z,9.8
2022-10-12T08:47:32.974Z,9.8
2022-10-12T08:53:56.114Z,9.8
2022-10-12T09:00:15.907Z,9.8
2022-10-12T09:06:39.063Z,3.3
2022-10-12T09:12:59.026Z,3.3
2022-10-12T09:19:22.057Z,1.9
2022-10-12T09:25:41.977Z,1.9
2022-10-12T09:32:05.045Z,2.5
2022-10-12T09:38:24.961Z,2.5
2022-10-12T09:44:47.990Z,1.2
2022-10-12T09:51:08.008Z,1.2
2022-10-12T09:57:30.961Z,7.2
2022-10-12T10:03:50.985Z,7.2
2022-10-12T10:10:14.334Z,3.3
2022-10-12T10:16:33.949Z,3.3
2022-10-12T10:22:56.943Z,10.4
2022-10-12T10:29:17.065Z,10.4
2022-10-12T10:35:40.002Z,2.3
2022-10-12T10:41:59.969Z,2.3
2022-10-12T10:48:22.943Z,7.1
2022-10-12T10:54:43.369Z,7.1
2022-10-12T11:01:06.229Z,0.6
2022-10-12T11:07:25.983Z,0.6
2022-10-12T11:13:48.956Z,7
2022-10-12T11:20:09.019Z,7
2022-10-12T11:26:31.994Z,0.4
2022-10-12T11:32:51.994Z,0.4
2022-10-12T11:39:17.070Z,2.3
2022-10-12T11:45:34.940Z,2.3
2022-10-12T11:51:58.003Z,0.5
2022-10-12T11:58:17.900Z,0.5
2022-10-12T12:04:42.493Z,3.7
2022-10-12T12:11:01.363Z,3.7
2022-10-12T12:17:26.903Z,2.2
2022-10-12T12:23:44.059Z,2.2
2022-10-12T12:30:06.905Z,12.2
2022-10-12T12:36:26.972Z,12.2
2022-10-12T12:42:49.946Z,22.3
2022-10-12T12:49:09.925Z,22.3
2022-10-12T12:55:33.003Z,7.7
2022-10-12T13:01:53.011Z,7.7
2022-10-12T13:08:15.965Z,1.7
2022-10-12T13:14:35.912Z,1.7
2022-10-12T13:20:59.191Z,1.2
2022-10-12T13:27:18.923Z,1.2
2022-10-12T13:50:25.972Z,7.6
2022-10-12T13:56:48.931Z,7.6
2022-10-12T14:03:08.956Z,7.6
2022-10-12T14:09:31.926Z,5.7
2022-10-12T14:15:52.000Z,5.7
2022-10-12T14:22:15.303Z,2.6
2022-10-12T14:28:35.004Z,2.6
2022-10-12T14:34:57.956Z,1.8
2022-10-12T14:41:17.897Z,1.8
2022-10-12T14:47:41.818Z,3.4
2022-10-12T14:54:01.163Z,3.4
2022-10-12T15:00:23.951Z,4.5
2022-10-12T15:06:47.044Z,4.5
2022-10-12T15:13:06.958Z,2
2022-10-12T15:19:27.014Z,2
2022-10-12T15:25:50.033Z,2.6
2022-10-12T15:32:09.952Z,2.6
2022-10-12T15:38:33.074Z,2.2
2022-10-12T15:44:53.211Z,2.2
2022-10-12T15:51:16.075Z,2.9
2022-10-12T15:57:35.904Z,2.9
2022-10-12T16:03:58.991Z,13.8
2022-10-12T16:10:19.005Z,13.8
2022-10-12T16:16:41.964Z,3.4
2022-10-12T16:23:05.051Z,3.4
2022-10-12T16:29:27.972Z,2.2
2022-10-12T16:35:48.039Z,2.2
2022-10-12T16:42:10.999Z,1.3
2022-10-12T16:48:30.996Z,1.3
2022-10-12T16:54:53.952Z,1.8
2022-10-12T17:01:14.013Z,1.8
2022-10-12T17:07:36.980Z,4.9
2022-10-12T17:13:57.544Z,4.9
2022-10-12T17:20:20.996Z,2.6
2022-10-12T17:26:41.168Z,2.6
2022-10-12T17:33:03.898Z,2.2
2022-10-12T17:39:23.971Z,2.2
2022-10-12T17:45:46.897Z,4.9
2022-10-12T17:52:06.985Z,4.9
2022-10-12T17:58:30.164Z,4.1
2022-10-12T18:04:50.003Z,4.1
2022-10-12T18:11:13.070Z,4.6
2022-10-12T18:17:32.999Z,4.6
2022-10-12T18:23:55.929Z,2.5
2022-10-12T18:30:16.103Z,2.5
2022-10-12T18:36:38.934Z,4.9
2022-10-12T18:42:59.020Z,4.9
2022-10-12T19:00:27.929Z,12.1
2022-10-12T19:06:47.890Z,12.1
2022-10-12T19:13:10.973Z,21.4
2022-10-12T19:19:30.956Z,21.4
2022-10-12T19:25:53.886Z,12.1
2022-10-12T19:32:13.992Z,12.1
2022-10-12T19:38:37.048Z,4.1
2022-10-12T19:44:57.102Z,4.1
2022-10-12T19:51:20.019Z,4.2
2022-10-12T19:57:40.469Z,4.2
2022-10-12T20:04:02.909Z,45.2
2022-10-12T20:10:22.911Z,45.2
2022-10-12T20:16:46.146Z,8.4
2022-10-12T20:23:05.998Z,8.4
2022-10-12T20:29:28.985Z,6.7
2022-10-12T20:35:48.959Z,6.7
2022-10-12T20:42:11.990Z,3.9
2022-10-12T20:48:32.018Z,3.9
2022-10-12T20:54:54.969Z,7
2022-10-12T21:01:15.001Z,7
2022-10-12T21:07:38.002Z,7.8
2022-10-12T21:13:58.128Z,7.8
2022-10-12T21:20:21.007Z,5.1
2022-10-12T21:26:41.110Z,5.1
2022-10-12T21:33:04.069Z,9
2022-10-12T21:39:23.960Z,9
2022-10-12T21:45:46.938Z,7.9
2022-10-12T21:52:06.985Z,7.9
2022-10-12T21:58:29.936Z,15.1
2022-10-12T22:22:44.942Z,22.6
2022-10-12T22:29:04.876Z,22.6
2022-10-12T22:35:27.960Z,22.6
2022-10-12T22:41:48.027Z,22.6
2022-10-12T22:48:10.926Z,12.4
2022-10-12T22:54:30.900Z,12.4
2022-10-12T23:00:54.103Z,13.9
2022-10-12T23:07:14.003Z,13.9
2022-10-12T23:13:36.944Z,15.9
2022-10-12T23:19:57.043Z,15.9
2022-10-12T23:26:19.984Z,7.4
2022-10-12T23:32:39.957Z,7.4
2022-10-12T23:39:02.944Z,5.6
2022-10-12T23:45:23.788Z,5.6
2022-10-12T23:51:46.970Z,9.4
2022-10-12T23:58:07.115Z,9.4
